sensor_id;sensor_type;location;lat;lon;timestamp;P1;durP1;ratioP1;P2;durP2;ratioP2
30677;SDS011;17437;47.188;8.896;2022-07-23T15:53:23;7.65;;;6.20;;
30677;SDS011;17437;47.188;8.896;2022-07-23T15:55:58;8.38;;;7.53;;
30677;SDS011;17437;47.188;8.896;2022-07-23T15:58:31;7.12;;;6.45;;
30677;SDS011;17437;47.188;8.896;2022-07-23T16:01:02;8.23;;;7.22;;
30677;SDS011;17437;47.188;8.896;2022-07-23T16:03:35;8.25;;;7.55;;
30677;SDS011;17437;47.188;8.896;2022-07-23T16:06:07;7.67;;;6.17;;
30677;SDS011;17437;47.188;8.896;2022-07-23T16:09:45;7.83;;;7.03;;
30677;SDS011;17437;47.188;8.896;2022-07-23T16:12:17;11.30;;;7.87;;
30677;SDS011;17437;47.188;8.896;2022-07-23T16:14:48;7.33;;;6.72;;
30677;SDS011;17437;47.188;8.896;2022-07-23T16:17:20;7.42;;;6.72;;
30677;SDS011;17437;47.188;8.896;2022-07-23T16:19:51;7.58;;;6.65;;
30677;SDS011;17437;47.188;8.896;2022-07-23T16:22:23;8.13;;;7.03;;
30677;SDS011;17437;47.188;8.896;2022-07-23T16:24:54;8.78;;;7.28;;
30677;SDS011;17437;47.188;8.896;2022-07-23T16:27:26;7.30;;;6.67;;
30677;SDS011;17437;47.188;8.896;2022-07-23T16:29:57;7.25;;;6.65;;
30677;SDS011;17437;47.188;8.896;2022-07-23T16:32:29;10.43;;;6.92;;
30677;SDS011;17437;47.188;8.896;2022-07-23T16:35:00;8.18;;;7.47;;
30677;SDS011;17437;47.188;8.896;2022-07-23T16:37:34;8.25;;;7.45;;
30677;SDS011;17437;47.188;8.896;2022-07-23T16:40:07;9.28;;;7.60;;
30677;SDS011;17437;47.188;8.896;2022-07-23T16:42:40;7.15;;;6.28;;
30677;SDS011;17437;47.188;8.896;2022-07-23T16:45:11;7.72;;;7.00;;
30677;SDS011;17437;47.188;8.896;2022-07-23T16:47:44;8.08;;;6.28;;
30677;SDS011;17437;47.188;8.896;2022-07-23T16:50:16;12.80;;;8.33;;
30677;SDS011;17437;47.188;8.896;2022-07-23T16:52:47;8.10;;;6.97;;
30677;SDS011;17437;47.188;8.896;2022-07-23T16:55:18;11.20;;;8.53;;
30677;SDS011;17437;47.188;8.896;2022-07-23T16:57:50;8.88;;;7.35;;
30677;SDS011;17437;47.188;8.896;2022-07-23T17:00:22;7.58;;;6.95;;
30677;SDS011;17437;47.188;8.896;2022-07-23T17:02:53;7.70;;;6.95;;
30677;SDS011;17437;47.188;8.896;2022-07-23T17:05:25;7.50;;;6.78;;
30677;SDS011;17437;47.188;8.896;2022-07-23T17:07:56;10.53;;;7.90;;
30677;SDS011;17437;47.188;8.896;2022-07-23T17:10:28;7.72;;;6.97;;
30677;SDS011;17437;47.188;8.896;2022-07-23T17:12:59;7.12;;;6.42;;
30677;SDS011;17437;47.188;8.896;2022-07-23T17:15:31;9.60;;;7.60;;
30677;SDS011;17437;47.188;8.896;2022-07-23T17:18:03;12.15;;;6.95;;
30677;SDS011;17437;47.188;8.896;2022-07-23T17:20:35;8.33;;;7.10;;
30677;SDS011;17437;47.188;8.896;2022-07-23T17:23:07;8.75;;;7.85;;
30677;SDS011;17437;47.188;8.896;2022-07-23T17:25:40;9.63;;;7.80;;
30677;SDS011;17437;47.188;8.896;2022-07-23T17:28:12;8.23;;;7.42;;
30677;SDS011;17437;47.188;8.896;2022-07-23T17:30:45;8.00;;;7.20;;
30677;SDS011;17437;47.188;8.896;2022-07-23T17:33:18;9.40;;;7.37;;
30677;SDS011;17437;47.188;8.896;2022-07-23T17:35:51;8.88;;;7.75;;
30677;SDS011;17437;47.188;8.896;2022-07-23T17:38:24;9.90;;;8.90;;
30677;SDS011;17437;47.188;8.896;2022-07-23T17:40:55;9.45;;;8.58;;
30677;SDS011;17437;47.188;8.896;2022-07-23T17:43:27;7.62;;;6.80;;
30677;SDS011;17437;47.188;8.896;2022-07-23T17:45:59;8.60;;;7.80;;
30677;SDS011;17437;47.188;8.896;2022-07-23T17:48:31;8.43;;;7.60;;
30677;SDS011;17437;47.188;8.896;2022-07-23T17:51:02;8.28;;;7.47;;
30677;SDS011;17437;47.188;8.896;2022-07-23T17:53:35;10.82;;;9.55;;
30677;SDS011;17437;47.188;8.896;2022-07-23T17:56:07;8.85;;;7.95;;
30677;SDS011;17437;47.188;8.896;2022-07-23T17:58:38;8.83;;;7.92;;
30677;SDS011;17437;47.188;8.896;2022-07-23T18:01:10;10.38;;;8.93;;
30677;SDS011;17437;47.188;8.896;2022-07-23T18:03:42;10.23;;;8.98;;
30677;SDS011;17437;47.188;8.896;2022-07-23T18:06:15;10.15;;;8.78;;
30677;SDS011;17437;47.188;8.896;2022-07-23T18:08:47;11.03;;;9.85;;
30677;SDS011;17437;47.188;8.896;2022-07-23T18:11:19;11.15;;;10.00;;
30677;SDS011;17437;47.188;8.896;2022-07-23T18:13:52;9.75;;;8.83;;
30677;SDS011;17437;47.188;8.896;2022-07-23T18:16:25;10.58;;;9.58;;
30677;SDS011;17437;47.188;8.896;2022-07-23T18:18:57;11.03;;;9.73;;
30677;SDS011;17437;47.188;8.896;2022-07-23T18:21:29;8.98;;;8.18;;
30677;SDS011;17437;47.188;8.896;2022-07-23T18:24:01;9.40;;;8.43;;
30677;SDS011;17437;47.188;8.896;2022-07-23T18:26:33;11.65;;;10.50;;
30677;SDS011;17437;47.188;8.896;2022-07-23T18:29:04;10.32;;;9.25;;
30677;SDS011;17437;47.188;8.896;2022-07-23T18:31:36;10.82;;;9.73;;
30677;SDS011;17437;47.188;8.896;2022-07-23T18:34:09;9.33;;;8.43;;
30677;SDS011;17437;47.188;8.896;2022-07-23T18:36:42;14.90;;;10.98;;
30677;SDS011;17437;47.188;8.896;2022-07-23T18:39:14;9.90;;;8.40;;
30677;SDS011;17437;47.188;8.896;2022-07-23T18:41:45;10.88;;;9.88;;
30677;SDS011;17437;47.188;8.896;2022-07-23T18:44:17;9.55;;;8.65;;
30677;SDS011;17437;47.188;8.896;2022-07-23T18:46:49;9.15;;;8.28;;
30677;SDS011;17437;47.188;8.896;2022-07-23T18:49:20;9.58;;;8.63;;
30677;SDS011;17437;47.188;8.896;2022-07-23T18:51:53;10.43;;;9.28;;
30677;SDS011;17437;47.188;8.896;2022-07-23T18:54:24;12.93;;;10.10;;
30677;SDS011;17437;47.188;8.896;2022-07-23T18:56:57;11.15;;;10.15;;
30677;SDS011;17437;47.188;8.896;2022-07-23T18:59:28;11.80;;;10.00;;
30677;SDS011;17437;47.188;8.896;2022-07-23T19:02:00;11.78;;;9.50;;
30677;SDS011;17437;47.188;8.896;2022-07-23T19:04:32;11.68;;;10.58;;
30677;SDS011;17437;47.188;8.896;2022-07-23T19:07:04;10.43;;;9.43;;
30677;SDS011;17437;47.188;8.896;2022-07-23T19:09:35;10.80;;;9.48;;
30677;SDS011;17437;47.188;8.896;2022-07-23T19:12:07;12.58;;;11.25;;
30677;SDS011;17437;47.188;8.896;2022-07-23T19:17:10;12.80;;;11.50;;
30677;SDS011;17437;47.188;8.896;2022-07-23T19:19:44;13.70;;;10.72;;
30677;SDS011;17437;47.188;8.896;2022-07-23T19:22:16;13.83;;;10.85;;
30677;SDS011;17437;47.188;8.896;2022-07-23T19:24:47;11.28;;;9.50;;
30677;SDS011;17437;47.188;8.896;2022-07-23T19:27:19;9.93;;;8.93;;
30677;SDS011;17437;47.188;8.896;2022-07-23T19:29:50;11.08;;;9.50;;
30677;SDS011;17437;47.188;8.896;2022-07-23T19:32:22;12.78;;;10.32;;
30677;SDS011;17437;47.188;8.896;2022-07-23T19:34:53;11.95;;;10.53;;
30677;SDS011;17437;47.188;8.896;2022-07-23T19:37:25;12.00;;;10.25;;
30677;SDS011;17437;47.188;8.896;2022-07-23T19:39:56;16.23;;;11.08;;
30677;SDS011;17437;47.188;8.896;2022-07-23T19:42:28;12.28;;;10.23;;
30677;SDS011;17437;47.188;8.896;2022-07-23T19:45:02;11.83;;;10.63;;
30677;SDS011;17437;47.188;8.896;2022-07-23T19:47:35;13.93;;;10.03;;
30677;SDS011;17437;47.188;8.896;2022-07-23T19:50:10;11.88;;;10.68;;
30677;SDS011;17437;47.188;8.896;2022-07-23T19:52:41;12.37;;;11.28;;
30677;SDS011;17437;47.188;8.896;2022-07-23T19:55:15;13.03;;;10.55;;
30677;SDS011;17437;47.188;8.896;2022-07-23T19:57:46;11.60;;;10.40;;
30677;SDS011;17437;47.188;8.896;2022-07-23T20:00:18;12.63;;;11.43;;
30677;SDS011;17437;47.188;8.896;2022-07-23T20:02:51;11.22;;;9.95;;
30677;SDS011;17437;47.188;8.896;2022-07-23T20:05:24;11.73;;;10.45;;
30677;SDS011;17437;47.188;8.896;2022-07-23T20:07:56;12.43;;;10.80;;
30677;SDS011;17437;47.188;8.896;2022-07-23T20:10:28;12.07;;;10.60;;
30677;SDS011;17437;47.188;8.896;2022-07-23T20:12:59;12.20;;;10.85;;
30677;SDS011;17437;47.188;8.896;2022-07-23T20:15:31;11.93;;;10.78;;
30677;SDS011;17437;47.188;8.896;2022-07-23T20:18:03;12.03;;;10.63;;
30677;SDS011;17437;47.188;8.896;2022-07-23T20:20:35;11.78;;;10.75;;
30677;SDS011;17437;47.188;8.896;2022-07-23T20:23:06;12.10;;;10.03;;
30677;SDS011;17437;47.188;8.896;2022-07-23T20:25:38;12.20;;;11.00;;
30677;SDS011;17437;47.188;8.896;2022-07-23T20:28:13;11.20;;;10.10;;
30677;SDS011;17437;47.188;8.896;2022-07-23T20:30:44;12.03;;;10.70;;
30677;SDS011;17437;47.188;8.896;2022-07-23T20:33:19;11.97;;;10.88;;
30677;SDS011;17437;47.188;8.896;2022-07-23T20:35:52;11.33;;;10.10;;
30677;SDS011;17437;47.188;8.896;2022-07-23T20:38:23;11.73;;;10.18;;
30677;SDS011;17437;47.188;8.896;2022-07-23T20:40:55;10.55;;;9.55;;
30677;SDS011;17437;47.188;8.896;2022-07-23T20:43:27;10.23;;;9.23;;
30677;SDS011;17437;47.188;8.896;2022-07-23T20:45:58;11.68;;;10.48;;
30677;SDS011;17437;47.188;8.896;2022-07-23T20:48:31;11.63;;;9.80;;
30677;SDS011;17437;47.188;8.896;2022-07-23T20:51:03;11.43;;;10.25;;
30677;SDS011;17437;47.188;8.896;2022-07-23T20:53:35;11.03;;;10.03;;
30677;SDS011;17437;47.188;8.896;2022-07-23T20:56:06;13.05;;;11.68;;
30677;SDS011;17437;47.188;8.896;2022-07-23T20:58:38;12.45;;;11.12;;
30677;SDS011;17437;47.188;8.896;2022-07-23T21:01:10;12.35;;;11.10;;
30677;SDS011;17437;47.188;8.896;2022-07-23T21:03:41;14.33;;;10.75;;
30677;SDS011;17437;47.188;8.896;2022-07-23T21:06:13;14.05;;;12.65;;
30677;SDS011;17437;47.188;8.896;2022-07-23T21:08:45;13.40;;;12.00;;
30677;SDS011;17437;47.188;8.896;2022-07-23T21:11:16;11.88;;;10.72;;
30677;SDS011;17437;47.188;8.896;2022-07-23T21:13:50;12.93;;;11.73;;
30677;SDS011;17437;47.188;8.896;2022-07-23T21:16:21;12.33;;;11.08;;
30677;SDS011;17437;47.188;8.896;2022-07-23T21:18:53;14.18;;;11.68;;
30677;SDS011;17437;47.188;8.896;2022-07-23T21:21:24;15.43;;;11.38;;
30677;SDS011;17437;47.188;8.896;2022-07-23T21:23:56;12.85;;;10.82;;
30677;SDS011;17437;47.188;8.896;2022-07-23T21:26:27;14.90;;;11.45;;
30677;SDS011;17437;47.188;8.896;2022-07-23T21:29:00;13.48;;;10.03;;
30677;SDS011;17437;47.188;8.896;2022-07-23T21:31:34;13.25;;;10.50;;
30677;SDS011;17437;47.188;8.896;2022-07-23T21:34:06;11.22;;;9.85;;
30677;SDS011;17437;47.188;8.896;2022-07-23T21:36:37;14.45;;;11.25;;
30677;SDS011;17437;47.188;8.896;2022-07-23T21:39:08;11.68;;;10.58;;
30677;SDS011;17437;47.188;8.896;2022-07-23T21:41:40;9.78;;;8.88;;
30677;SDS011;17437;47.188;8.896;2022-07-23T21:44:14;10.80;;;9.73;;
30677;SDS011;17437;47.188;8.896;2022-07-23T21:46:46;11.65;;;10.28;;
30677;SDS011;17437;47.188;8.896;2022-07-23T21:49:17;11.55;;;10.20;;
30677;SDS011;17437;47.188;8.896;2022-07-23T21:51:49;14.50;;;9.95;;
30677;SDS011;17437;47.188;8.896;2022-07-23T21:54:20;13.13;;;9.93;;
30677;SDS011;17437;47.188;8.896;2022-07-23T21:56:52;13.58;;;10.08;;
30677;SDS011;17437;47.188;8.896;2022-07-23T21:59:24;11.20;;;9.25;;
30677;SDS011;17437;47.188;8.896;2022-07-23T22:01:55;15.80;;;12.28;;
30677;SDS011;17437;47.188;8.896;2022-07-23T22:04:28;11.57;;;10.43;;
30677;SDS011;17437;47.188;8.896;2022-07-23T22:06:59;13.20;;;9.13;;
30677;SDS011;17437;47.188;8.896;2022-07-23T22:09:31;10.25;;;9.25;;
30677;SDS011;17437;47.188;8.896;2022-07-23T22:12:03;12.95;;;9.75;;
30677;SDS011;17437;47.188;8.896;2022-07-23T22:14:36;11.33;;;9.70;;
30677;SDS011;17437;47.188;8.896;2022-07-23T22:17:08;11.10;;;10.00;;
30677;SDS011;17437;47.188;8.896;2022-07-23T22:19:39;14.00;;;9.70;;
30677;SDS011;17437;47.188;8.896;2022-07-23T22:22:11;11.33;;;9.68;;
30677;SDS011;17437;47.188;8.896;2022-07-23T22:24:42;10.23;;;9.28;;
30677;SDS011;17437;47.188;8.896;2022-07-23T22:27:14;13.22;;;11.85;;
30677;SDS011;17437;47.188;8.896;2022-07-23T22:29:45;11.70;;;10.53;;
30677;SDS011;17437;47.188;8.896;2022-07-23T22:32:17;10.95;;;9.75;;
30677;SDS011;17437;47.188;8.896;2022-07-23T22:34:50;13.22;;;11.75;;
30677;SDS011;17437;47.188;8.896;2022-07-23T22:37:22;12.80;;;11.57;;
30677;SDS011;17437;47.188;8.896;2022-07-23T22:39:54;12.28;;;10.25;;
30677;SDS011;17437;47.188;8.896;2022-07-23T22:42:25;14.73;;;11.75;;
30677;SDS011;17437;47.188;8.896;2022-07-23T22:44:57;11.10;;;10.03;;
30677;SDS011;17437;47.188;8.896;2022-07-23T22:47:28;13.62;;;12.33;;
30677;SDS011;17437;47.188;8.896;2022-07-23T22:50:01;11.97;;;10.48;;
30677;SDS011;17437;47.188;8.896;2022-07-23T22:52:35;10.93;;;9.83;;
30677;SDS011;17437;47.188;8.896;2022-07-23T22:55:08;10.58;;;9.48;;
30677;SDS011;17437;47.188;8.896;2022-07-23T22:57:39;11.05;;;9.95;;
30677;SDS011;17437;47.188;8.896;2022-07-23T23:00:12;13.62;;;11.88;;
30677;SDS011;17437;47.188;8.896;2022-07-23T23:02:47;13.10;;;11.73;;
30677;SDS011;17437;47.188;8.896;2022-07-23T23:05:18;11.78;;;10.15;;
30677;SDS011;17437;47.188;8.896;2022-07-23T23:07:50;12.85;;;11.40;;
30677;SDS011;17437;47.188;8.896;2022-07-23T23:10:21;11.78;;;10.58;;
30677;SDS011;17437;47.188;8.896;2022-07-23T23:12:54;17.40;;;11.03;;
30677;SDS011;17437;47.188;8.896;2022-07-23T23:15:25;10.75;;;9.55;;
30677;SDS011;17437;47.188;8.896;2022-07-23T23:17:57;14.95;;;12.20;;
30677;SDS011;17437;47.188;8.896;2022-07-23T23:20:29;13.70;;;11.90;;
30677;SDS011;17437;47.188;8.896;2022-07-23T23:23:00;13.38;;;12.13;;
30677;SDS011;17437;47.188;8.896;2022-07-23T23:25:32;13.38;;;11.38;;
30677;SDS011;17437;47.188;8.896;2022-07-23T23:28:04;14.55;;;12.25;;
30677;SDS011;17437;47.188;8.896;2022-07-23T23:30:35;13.68;;;12.13;;
30677;SDS011;17437;47.188;8.896;2022-07-23T23:33:06;13.88;;;12.37;;
30677;SDS011;17437;47.188;8.896;2022-07-23T23:35:38;18.12;;;14.65;;
30677;SDS011;17437;47.188;8.896;2022-07-23T23:38:10;14.45;;;13.03;;
30677;SDS011;17437;47.188;8.896;2022-07-23T23:40:41;14.85;;;12.28;;
30677;SDS011;17437;47.188;8.896;2022-07-23T23:43:13;15.15;;;13.18;;
30677;SDS011;17437;47.188;8.896;2022-07-23T23:45:45;14.35;;;12.85;;
30677;SDS011;17437;47.188;8.896;2022-07-23T23:48:16;13.35;;;11.78;;
30677;SDS011;17437;47.188;8.896;2022-07-23T23:50:48;16.85;;;12.73;;
30677;SDS011;17437;47.188;8.896;2022-07-23T23:53:20;17.12;;;13.08;;
30677;SDS011;17437;47.188;8.896;2022-07-23T23:55:51;13.93;;;12.28;;
30677;SDS011;17437;47.188;8.896;2022-07-23T23:58:23;14.18;;;12.70;;
